Journey — WDA4074 — position and weather

sailwx.info

Track history (hours):
 
Tides and Currents Weather Stations Pressure Air Temp Water Temp Dewpoint Dewpoint Depression Visibility Wind Speed Wind Dir Waves Ship Positions

Journey

Owner: Beller, Jeff B, Ventura, CA. More information available from US FCC via Universal Licensing System and Coast Guard Vessel Documentation Center.

Last reported at 2017-Oct-09 00:34 UTC. Time now 2017-Nov-21 01:11 UTC.
Position N 34°15' W 119°16'.
Warning: this ship's position is 43 days out of date.

Type: Sailing vessel. MMSI: 366805460.

Date/timePositionNaut miles runAvg speedWind from/ knotsBaromVisibWave heightAir tempDewpointWater temp
2017-Oct-09 00:34N 34°15' W 119°16'0 1.5
2017-Oct-09 00:30N 34°15' W 119°16'2 3.9
2017-Oct-08 23:57N 34°14' W 119°18'3 5.9
2017-Oct-08 23:28N 34°13' W 119°21'3 5.8
2017-Oct-08 23:00N 34°12' W 119°24'3 5.0
2017-Oct-08 22:30N 34°11' W 119°27'3 5.3
2017-Oct-08 21:55N 34°09' W 119°30'3 6.1
2017-Oct-08 21:28N 34°07' W 119°33'3 5.5
2017-Oct-08 20:59N 34°06' W 119°35'3 5.2
2017-Oct-08 20:30N 34°04' W 119°38'4 0.1
2017-Oct-06 20:12N 34°02' W 119°42'2 6.8
2017-Oct-06 19:57N 34°04' W 119°40'3 6.9
2017-Oct-06 19:30N 34°06' W 119°38'3 6.8
2017-Oct-06 19:00N 34°09' W 119°35'4 6.6
2017-Oct-06 18:26N 34°11' W 119°32'3 6.8
2017-Oct-06 17:59N 34°12' W 119°28'4 7.1
2017-Oct-06 17:29N 34°13' W 119°24'4 6.8
2017-Oct-06 16:53N 34°14' W 119°19'3 6.5
2017-Oct-06 16:29N 34°15' W 119°16'  
Track history (hours):
 
Tides and Currents Weather Stations Pressure Air Temp Water Temp Dewpoint Dewpoint Depression Visibility Wind Speed Wind Dir Waves Ship Positions

Journey

Owner: Beller, Jeff B, Ventura, CA. More information available from US FCC via Universal Licensing System and Coast Guard Vessel Documentation Center.

Last reported at 2017-Oct-09 00:34 UTC. Time now 2017-Nov-21 01:11 UTC.
Position N 34°15' W 119°16'.
Warning: this ship's position is 43 days out of date.

Type: Sailing vessel. MMSI: 366805460.

Date/timePositionNaut miles runAvg speedWind from/ knotsBaromVisibWave heightAir tempDewpointWater temp
2017-Oct-09 00:34N 34°15' W 119°16'0 1.5
2017-Oct-09 00:30N 34°15' W 119°16'2 3.9
2017-Oct-08 23:57N 34°14' W 119°18'3 5.9
2017-Oct-08 23:28N 34°13' W 119°21'3 5.8
2017-Oct-08 23:00N 34°12' W 119°24'3 5.0
2017-Oct-08 22:30N 34°11' W 119°27'3 5.3
2017-Oct-08 21:55N 34°09' W 119°30'3 6.1
2017-Oct-08 21:28N 34°07' W 119°33'3 5.5
2017-Oct-08 20:59N 34°06' W 119°35'3 5.2
2017-Oct-08 20:30N 34°04' W 119°38'4 0.1
2017-Oct-06 20:12N 34°02' W 119°42'2 6.8
2017-Oct-06 19:57N 34°04' W 119°40'3 6.9
2017-Oct-06 19:30N 34°06' W 119°38'3 6.8
2017-Oct-06 19:00N 34°09' W 119°35'4 6.6
2017-Oct-06 18:26N 34°11' W 119°32'3 6.8
2017-Oct-06 17:59N 34°12' W 119°28'4 7.1
2017-Oct-06 17:29N 34°13' W 119°24'4 6.8
2017-Oct-06 16:53N 34°14' W 119°19'3 6.5
2017-Oct-06 16:29N 34°15' W 119°16'  

Dump ship's entire track history